sensor_id;sensor_type;location;lat;lon;timestamp;temperature;humidity
20498;DHT22;10407;53.238;10.448;2023-08-24T00:00:26;20.30;99.90
20498;DHT22;10407;53.238;10.448;2023-08-24T00:02:54;20.30;99.90
20498;DHT22;10407;53.238;10.448;2023-08-24T00:05:21;20.40;99.90
20498;DHT22;10407;53.238;10.448;2023-08-24T00:07:49;20.20;99.90
20498;DHT22;10407;53.238;10.448;2023-08-24T00:10:17;20.10;99.90
20498;DHT22;10407;53.238;10.448;2023-08-24T00:12:45;20.00;99.90
20498;DHT22;10407;53.238;10.448;2023-08-24T00:15:13;20.10;99.90
20498;DHT22;10407;53.238;10.448;2023-08-24T00:17:40;20.00;99.90
20498;DHT22;10407;53.238;10.448;2023-08-24T00:20:08;20.00;99.90
20498;DHT22;10407;53.238;10.448;2023-08-24T00:22:38;20.30;99.90
20498;DHT22;10407;53.238;10.448;2023-08-24T00:25:07;20.30;99.90
20498;DHT22;10407;53.238;10.448;2023-08-24T00:27:35;20.30;99.90
20498;DHT22;10407;53.238;10.448;2023-08-24T00:30:04;20.30;99.90
20498;DHT22;10407;53.238;10.448;2023-08-24T00:32:33;20.40;99.90
20498;DHT22;10407;53.238;10.448;2023-08-24T00:35:02;20.40;99.90
20498;DHT22;10407;53.238;10.448;2023-08-24T00:37:30;20.30;99.90
20498;DHT22;10407;53.238;10.448;2023-08-24T00:40:00;20.00;99.90
20498;DHT22;10407;53.238;10.448;2023-08-24T00:42:29;19.90;99.90
20498;DHT22;10407;53.238;10.448;2023-08-24T00:44:58;19.70;99.90
20498;DHT22;10407;53.238;10.448;2023-08-24T00:47:26;19.90;99.90
20498;DHT22;10407;53.238;10.448;2023-08-24T00:53:15;20.10;99.90
20498;DHT22;10407;53.238;10.448;2023-08-24T00:55:45;19.90;99.90
20498;DHT22;10407;53.238;10.448;2023-08-24T00:58:13;20.00;99.90
20498;DHT22;10407;53.238;10.448;2023-08-24T01:00:41;20.10;99.90
20498;DHT22;10407;53.238;10.448;2023-08-24T01:03:09;20.20;99.90
20498;DHT22;10407;53.238;10.448;2023-08-24T01:05:36;19.80;99.90
20498;DHT22;10407;53.238;10.448;2023-08-24T01:08:04;19.90;99.90
20498;DHT22;10407;53.238;10.448;2023-08-24T01:10:52;20.00;99.90
20498;DHT22;10407;53.238;10.448;2023-08-24T01:13:21;19.80;99.90
20498;DHT22;10407;53.238;10.448;2023-08-24T01:16:04;19.60;99.90
20498;DHT22;10407;53.238;10.448;2023-08-24T01:18:28;19.60;99.90
20498;DHT22;10407;53.238;10.448;2023-08-24T01:20:57;19.70;99.90
20498;DHT22;10407;53.238;10.448;2023-08-24T01:23:41;19.80;99.90
20498;DHT22;10407;53.238;10.448;2023-08-24T01:26:18;19.70;99.90
20498;DHT22;10407;53.238;10.448;2023-08-24T01:28:47;19.60;99.90
20498;DHT22;10407;53.238;10.448;2023-08-24T01:31:15;19.80;99.90
20498;DHT22;10407;53.238;10.448;2023-08-24T01:33:44;19.90;99.90
20498;DHT22;10407;53.238;10.448;2023-08-24T01:36:14;19.90;99.90
20498;DHT22;10407;53.238;10.448;2023-08-24T01:38:49;19.90;99.90
20498;DHT22;10407;53.238;10.448;2023-08-24T01:41:26;19.60;99.90
20498;DHT22;10407;53.238;10.448;2023-08-24T01:43:54;19.60;99.90
20498;DHT22;10407;53.238;10.448;2023-08-24T01:46:24;19.20;99.90
20498;DHT22;10407;53.238;10.448;2023-08-24T01:48:53;19.20;99.90
20498;DHT22;10407;53.238;10.448;2023-08-24T01:51:23;19.40;99.90
20498;DHT22;10407;53.238;10.448;2023-08-24T01:53:52;19.50;99.90
20498;DHT22;10407;53.238;10.448;2023-08-24T01:56:20;19.50;99.90
20498;DHT22;10407;53.238;10.448;2023-08-24T01:58:48;19.40;99.90
20498;DHT22;10407;53.238;10.448;2023-08-24T02:01:15;19.30;99.90
20498;DHT22;10407;53.238;10.448;2023-08-24T02:03:43;19.40;99.90
20498;DHT22;10407;53.238;10.448;2023-08-24T02:06:10;19.40;99.90
20498;DHT22;10407;53.238;10.448;2023-08-24T02:08:38;19.10;99.90
20498;DHT22;10407;53.238;10.448;2023-08-24T02:11:06;19.20;99.90
20498;DHT22;10407;53.238;10.448;2023-08-24T02:13:34;19.10;99.90
20498;DHT22;10407;53.238;10.448;2023-08-24T02:16:03;18.90;99.90
20498;DHT22;10407;53.238;10.448;2023-08-24T02:18:31;19.00;99.90
20498;DHT22;10407;53.238;10.448;2023-08-24T02:20:58;18.80;99.90
20498;DHT22;10407;53.238;10.448;2023-08-24T02:23:26;18.90;99.90
20498;DHT22;10407;53.238;10.448;2023-08-24T02:25:55;18.90;99.90
20498;DHT22;10407;53.238;10.448;2023-08-24T02:28:22;19.10;99.90
20498;DHT22;10407;53.238;10.448;2023-08-24T02:30:50;19.10;99.90
20498;DHT22;10407;53.238;10.448;2023-08-24T02:33:18;19.10;99.90
20498;DHT22;10407;53.238;10.448;2023-08-24T02:35:47;19.10;99.90
20498;DHT22;10407;53.238;10.448;2023-08-24T02:38:15;19.10;99.90
20498;DHT22;10407;53.238;10.448;2023-08-24T02:40:42;19.00;99.90
20498;DHT22;10407;53.238;10.448;2023-08-24T02:43:10;19.00;99.90
20498;DHT22;10407;53.238;10.448;2023-08-24T02:45:38;19.00;99.90
20498;DHT22;10407;53.238;10.448;2023-08-24T02:48:06;18.90;99.90
20498;DHT22;10407;53.238;10.448;2023-08-24T02:50:34;18.70;99.90
20498;DHT22;10407;53.238;10.448;2023-08-24T02:53:01;18.70;99.90
20498;DHT22;10407;53.238;10.448;2023-08-24T02:55:31;18.70;99.90
20498;DHT22;10407;53.238;10.448;2023-08-24T02:57:59;18.70;99.90
20498;DHT22;10407;53.238;10.448;2023-08-24T03:03:48;18.60;99.90
20498;DHT22;10407;53.238;10.448;2023-08-24T03:06:16;18.60;99.90
20498;DHT22;10407;53.238;10.448;2023-08-24T03:08:44;18.60;99.90
20498;DHT22;10407;53.238;10.448;2023-08-24T03:11:12;18.60;99.90
20498;DHT22;10407;53.238;10.448;2023-08-24T03:13:39;18.70;99.90
20498;DHT22;10407;53.238;10.448;2023-08-24T03:16:08;18.40;99.90
20498;DHT22;10407;53.238;10.448;2023-08-24T03:18:37;18.40;99.90
20498;DHT22;10407;53.238;10.448;2023-08-24T03:21:04;18.50;99.90
20498;DHT22;10407;53.238;10.448;2023-08-24T03:23:32;18.40;99.90
20498;DHT22;10407;53.238;10.448;2023-08-24T03:26:00;18.60;99.90
20498;DHT22;10407;53.238;10.448;2023-08-24T03:28:28;18.50;99.90
20498;DHT22;10407;53.238;10.448;2023-08-24T03:30:55;18.40;99.90
20498;DHT22;10407;53.238;10.448;2023-08-24T03:33:23;18.40;99.90
20498;DHT22;10407;53.238;10.448;2023-08-24T03:35:51;18.40;99.90
20498;DHT22;10407;53.238;10.448;2023-08-24T03:38:18;18.30;99.90
20498;DHT22;10407;53.238;10.448;2023-08-24T03:40:46;18.30;99.90
20498;DHT22;10407;53.238;10.448;2023-08-24T03:43:13;18.40;99.90
20498;DHT22;10407;53.238;10.448;2023-08-24T03:45:42;18.30;99.90
20498;DHT22;10407;53.238;10.448;2023-08-24T03:48:10;18.40;99.90
20498;DHT22;10407;53.238;10.448;2023-08-24T03:50:38;18.40;99.90
20498;DHT22;10407;53.238;10.448;2023-08-24T03:53:06;18.30;99.90
20498;DHT22;10407;53.238;10.448;2023-08-24T03:58:56;18.20;99.90
20498;DHT22;10407;53.238;10.448;2023-08-24T04:01:23;18.30;99.90
20498;DHT22;10407;53.238;10.448;2023-08-24T04:03:51;18.10;99.90
20498;DHT22;10407;53.238;10.448;2023-08-24T04:06:18;18.20;99.90
20498;DHT22;10407;53.238;10.448;2023-08-24T04:08:49;18.20;99.90
20498;DHT22;10407;53.238;10.448;2023-08-24T04:11:16;18.10;99.90
20498;DHT22;10407;53.238;10.448;2023-08-24T04:13:44;18.20;99.90
20498;DHT22;10407;53.238;10.448;2023-08-24T04:16:11;18.40;99.90
20498;DHT22;10407;53.238;10.448;2023-08-24T04:18:39;18.30;99.90
20498;DHT22;10407;53.238;10.448;2023-08-24T04:21:07;18.30;99.90
20498;DHT22;10407;53.238;10.448;2023-08-24T04:23:34;18.20;99.90
20498;DHT22;10407;53.238;10.448;2023-08-24T04:26:02;18.20;99.90
20498;DHT22;10407;53.238;10.448;2023-08-24T04:28:31;18.30;99.90
20498;DHT22;10407;53.238;10.448;2023-08-24T04:30:59;18.30;99.90
20498;DHT22;10407;53.238;10.448;2023-08-24T04:33:26;18.30;99.90
20498;DHT22;10407;53.238;10.448;2023-08-24T04:35:54;18.40;99.90
20498;DHT22;10407;53.238;10.448;2023-08-24T04:38:21;18.50;99.90
20498;DHT22;10407;53.238;10.448;2023-08-24T04:40:51;18.70;99.90
20498;DHT22;10407;53.238;10.448;2023-08-24T04:43:21;18.90;99.90
20498;DHT22;10407;53.238;10.448;2023-08-24T04:45:49;19.20;99.90
20498;DHT22;10407;53.238;10.448;2023-08-24T04:48:21;19.30;99.90
20498;DHT22;10407;53.238;10.448;2023-08-24T04:50:50;19.50;99.90
20498;DHT22;10407;53.238;10.448;2023-08-24T04:53:19;19.80;99.90
20498;DHT22;10407;53.238;10.448;2023-08-24T04:55:47;20.40;99.10
20498;DHT22;10407;53.238;10.448;2023-08-24T04:58:14;21.10;97.10
20498;DHT22;10407;53.238;10.448;2023-08-24T05:00:42;21.60;95.30
20498;DHT22;10407;53.238;10.448;2023-08-24T05:03:10;21.50;94.70
20498;DHT22;10407;53.238;10.448;2023-08-24T05:05:38;20.70;96.30
20498;DHT22;10407;53.238;10.448;2023-08-24T05:08:06;20.00;99.10
20498;DHT22;10407;53.238;10.448;2023-08-24T05:10:35;19.90;99.90
20498;DHT22;10407;53.238;10.448;2023-08-24T05:13:03;19.90;99.90
20498;DHT22;10407;53.238;10.448;2023-08-24T05:15:31;19.60;99.90
20498;DHT22;10407;53.238;10.448;2023-08-24T05:17:58;19.30;99.90
20498;DHT22;10407;53.238;10.448;2023-08-24T05:20:26;19.10;99.90
20498;DHT22;10407;53.238;10.448;2023-08-24T05:22:54;19.00;99.90
20498;DHT22;10407;53.238;10.448;2023-08-24T05:25:22;19.10;99.90
20498;DHT22;10407;53.238;10.448;2023-08-24T05:27:50;19.00;99.90
20498;DHT22;10407;53.238;10.448;2023-08-24T05:30:18;19.40;99.90
20498;DHT22;10407;53.238;10.448;2023-08-24T05:32:45;19.60;99.90
20498;DHT22;10407;53.238;10.448;2023-08-24T05:35:13;19.50;99.90
20498;DHT22;10407;53.238;10.448;2023-08-24T05:37:40;19.60;99.90
20498;DHT22;10407;53.238;10.448;2023-08-24T05:40:09;19.40;99.90
20498;DHT22;10407;53.238;10.448;2023-08-24T05:42:36;19.20;99.90
20498;DHT22;10407;53.238;10.448;2023-08-24T05:45:04;19.30;99.90
20498;DHT22;10407;53.238;10.448;2023-08-24T05:47:32;19.30;99.90
20498;DHT22;10407;53.238;10.448;2023-08-24T05:53:22;19.10;99.90
20498;DHT22;10407;53.238;10.448;2023-08-24T05:55:49;19.20;99.90
20498;DHT22;10407;53.238;10.448;2023-08-24T05:58:17;19.50;99.90
20498;DHT22;10407;53.238;10.448;2023-08-24T06:00:44;19.80;99.90
20498;DHT22;10407;53.238;10.448;2023-08-24T06:03:12;19.80;99.90
20498;DHT22;10407;53.238;10.448;2023-08-24T06:05:39;19.70;99.90
20498;DHT22;10407;53.238;10.448;2023-08-24T06:08:07;19.70;99.90
20498;DHT22;10407;53.238;10.448;2023-08-24T06:10:34;19.80;99.90
20498;DHT22;10407;53.238;10.448;2023-08-24T06:13:02;20.40;99.90
20498;DHT22;10407;53.238;10.448;2023-08-24T06:15:29;21.30;99.90
20498;DHT22;10407;53.238;10.448;2023-08-24T06:17:57;22.70;96.20
20498;DHT22;10407;53.238;10.448;2023-08-24T06:20:26;24.10;92.60
20498;DHT22;10407;53.238;10.448;2023-08-24T06:22:55;25.40;89.40
20498;DHT22;10407;53.238;10.448;2023-08-24T06:25:22;25.80;85.40
20498;DHT22;10407;53.238;10.448;2023-08-24T06:27:50;25.80;82.50
20498;DHT22;10407;53.238;10.448;2023-08-24T06:30:17;25.30;85.60
20498;DHT22;10407;53.238;10.448;2023-08-24T06:32:45;25.90;85.20
20498;DHT22;10407;53.238;10.448;2023-08-24T06:35:12;25.00;84.80
20498;DHT22;10407;53.238;10.448;2023-08-24T06:37:41;24.20;87.40
20498;DHT22;10407;53.238;10.448;2023-08-24T06:40:09;23.80;89.60
20498;DHT22;10407;53.238;10.448;2023-08-24T06:42:37;22.60;92.10
20498;DHT22;10407;53.238;10.448;2023-08-24T06:45:05;23.10;92.30
20498;DHT22;10407;53.238;10.448;2023-08-24T06:47:33;21.80;93.90
20498;DHT22;10407;53.238;10.448;2023-08-24T06:50:00;22.20;93.20
20498;DHT22;10407;53.238;10.448;2023-08-24T06:52:28;23.00;92.20
20498;DHT22;10407;53.238;10.448;2023-08-24T06:54:56;22.90;91.60
20498;DHT22;10407;53.238;10.448;2023-08-24T06:57:23;24.20;90.00
20498;DHT22;10407;53.238;10.448;2023-08-24T06:59:51;24.40;88.70
20498;DHT22;10407;53.238;10.448;2023-08-24T07:02:19;23.80;90.10
20498;DHT22;10407;53.238;10.448;2023-08-24T07:04:46;24.50;87.50
20498;DHT22;10407;53.238;10.448;2023-08-24T07:07:14;25.10;85.00
20498;DHT22;10407;53.238;10.448;2023-08-24T07:09:41;25.60;83.10
20498;DHT22;10407;53.238;10.448;2023-08-24T07:12:09;24.50;83.20
20498;DHT22;10407;53.238;10.448;2023-08-24T07:14:37;23.00;88.90
20498;DHT22;10407;53.238;10.448;2023-08-24T07:17:06;23.80;89.10
20498;DHT22;10407;53.238;10.448;2023-08-24T07:19:33;23.90;88.00
20498;DHT22;10407;53.238;10.448;2023-08-24T07:22:01;24.60;83.80
20498;DHT22;10407;53.238;10.448;2023-08-24T07:24:29;24.90;79.70
20498;DHT22;10407;53.238;10.448;2023-08-24T07:26:56;24.60;84.10
20498;DHT22;10407;53.238;10.448;2023-08-24T07:29:25;24.40;83.80
20498;DHT22;10407;53.238;10.448;2023-08-24T07:31:52;24.00;87.50
20498;DHT22;10407;53.238;10.448;2023-08-24T07:34:20;24.20;86.10
20498;DHT22;10407;53.238;10.448;2023-08-24T07:36:49;24.40;85.00
20498;DHT22;10407;53.238;10.448;2023-08-24T07:39:17;24.60;86.30
20498;DHT22;10407;53.238;10.448;2023-08-24T07:41:45;25.70;82.70
20498;DHT22;10407;53.238;10.448;2023-08-24T07:44:13;26.20;78.10
20498;DHT22;10407;53.238;10.448;2023-08-24T07:46:40;26.10;78.60
20498;DHT22;10407;53.238;10.448;2023-08-24T07:49:08;26.30;76.30
20498;DHT22;10407;53.238;10.448;2023-08-24T07:51:36;25.70;76.60
20498;DHT22;10407;53.238;10.448;2023-08-24T07:54:03;25.30;81.50
20498;DHT22;10407;53.238;10.448;2023-08-24T07:56:33;25.80;77.80
20498;DHT22;10407;53.238;10.448;2023-08-24T07:59:00;26.40;76.60
20498;DHT22;10407;53.238;10.448;2023-08-24T08:01:28;26.80;74.70
20498;DHT22;10407;53.238;10.448;2023-08-24T08:03:57;26.70;77.10
20498;DHT22;10407;53.238;10.448;2023-08-24T08:06:24;27.30;75.90
20498;DHT22;10407;53.238;10.448;2023-08-24T08:08:53;26.30;73.30
20498;DHT22;10407;53.238;10.448;2023-08-24T08:11:21;26.80;72.60
20498;DHT22;10407;53.238;10.448;2023-08-24T08:13:48;27.20;72.00
20498;DHT22;10407;53.238;10.448;2023-08-24T08:16:16;27.50;71.70
20498;DHT22;10407;53.238;10.448;2023-08-24T08:18:43;27.70;70.10
20498;DHT22;10407;53.238;10.448;2023-08-24T08:21:16;27.70;70.00
20498;DHT22;10407;53.238;10.448;2023-08-24T08:23:48;26.10;72.20
20498;DHT22;10407;53.238;10.448;2023-08-24T08:26:16;25.90;68.60
20498;DHT22;10407;53.238;10.448;2023-08-24T08:28:44;25.40;71.90
20498;DHT22;10407;53.238;10.448;2023-08-24T08:31:11;25.80;71.30
20498;DHT22;10407;53.238;10.448;2023-08-24T08:33:39;26.40;68.90
20498;DHT22;10407;53.238;10.448;2023-08-24T08:36:06;26.80;68.10
20498;DHT22;10407;53.238;10.448;2023-08-24T08:38:34;26.50;69.40
20498;DHT22;10407;53.238;10.448;2023-08-24T08:41:04;25.80;68.20
20498;DHT22;10407;53.238;10.448;2023-08-24T08:43:32;26.00;70.70
20498;DHT22;10407;53.238;10.448;2023-08-24T08:46:00;26.00;69.30
20498;DHT22;10407;53.238;10.448;2023-08-24T08:48:30;26.80;68.40
20498;DHT22;10407;53.238;10.448;2023-08-24T08:50:58;27.30;67.40
20498;DHT22;10407;53.238;10.448;2023-08-24T08:53:28;27.40;66.50
20498;DHT22;10407;53.238;10.448;2023-08-24T08:55:56;27.40;66.20
20498;DHT22;10407;53.238;10.448;2023-08-24T08:58:25;27.70;64.10
20498;DHT22;10407;53.238;10.448;2023-08-24T09:00:55;27.20;66.80
20498;DHT22;10407;53.238;10.448;2023-08-24T09:03:23;27.60;68.50
20498;DHT22;10407;53.238;10.448;2023-08-24T09:05:50;27.90;65.70
20498;DHT22;10407;53.238;10.448;2023-08-24T09:08:18;27.20;64.30
20498;DHT22;10407;53.238;10.448;2023-08-24T09:10:46;26.70;67.50
20498;DHT22;10407;53.238;10.448;2023-08-24T09:13:14;27.40;65.20
20498;DHT22;10407;53.238;10.448;2023-08-24T09:15:41;26.90;66.70
20498;DHT22;10407;53.238;10.448;2023-08-24T09:18:09;27.10;63.70
20498;DHT22;10407;53.238;10.448;2023-08-24T09:20:36;26.90;64.70
20498;DHT22;10407;53.238;10.448;2023-08-24T09:23:04;26.20;67.30
20498;DHT22;10407;53.238;10.448;2023-08-24T09:25:31;27.30;67.40
20498;DHT22;10407;53.238;10.448;2023-08-24T09:28:03;27.80;63.90
20498;DHT22;10407;53.238;10.448;2023-08-24T09:30:32;27.60;63.20
20498;DHT22;10407;53.238;10.448;2023-08-24T09:33:03;27.60;62.60
20498;DHT22;10407;53.238;10.448;2023-08-24T09:35:34;27.80;61.40
20498;DHT22;10407;53.238;10.448;2023-08-24T09:38:20;27.60;63.20
20498;DHT22;10407;53.238;10.448;2023-08-24T09:40:53;27.20;65.00
20498;DHT22;10407;53.238;10.448;2023-08-24T09:43:21;27.40;65.00
20498;DHT22;10407;53.238;10.448;2023-08-24T09:45:55;28.10;66.10
20498;DHT22;10407;53.238;10.448;2023-08-24T09:48:20;28.20;62.30
20498;DHT22;10407;53.238;10.448;2023-08-24T09:50:54;27.00;61.80
20498;DHT22;10407;53.238;10.448;2023-08-24T09:53:19;27.40;63.00
20498;DHT22;10407;53.238;10.448;2023-08-24T09:55:53;27.70;59.90
20498;DHT22;10407;53.238;10.448;2023-08-24T09:58:25;27.60;64.00
20498;DHT22;10407;53.238;10.448;2023-08-24T10:00:53;28.50;63.20
20498;DHT22;10407;53.238;10.448;2023-08-24T10:03:25;28.80;60.90
20498;DHT22;10407;53.238;10.448;2023-08-24T10:05:55;28.30;60.00
20498;DHT22;10407;53.238;10.448;2023-08-24T10:08:39;28.50;60.20
20498;DHT22;10407;53.238;10.448;2023-08-24T10:11:06;28.10;59.30
20498;DHT22;10407;53.238;10.448;2023-08-24T10:13:50;28.60;60.40
20498;DHT22;10407;53.238;10.448;2023-08-24T10:16:15;28.70;59.40
20498;DHT22;10407;53.238;10.448;2023-08-24T10:18:45;28.50;59.90
20498;DHT22;10407;53.238;10.448;2023-08-24T10:21:13;28.60;58.90
20498;DHT22;10407;53.238;10.448;2023-08-24T10:23:42;28.80;58.70
20498;DHT22;10407;53.238;10.448;2023-08-24T10:26:11;28.50;56.50
20498;DHT22;10407;53.238;10.448;2023-08-24T10:28:39;28.20;59.50
20498;DHT22;10407;53.238;10.448;2023-08-24T10:31:08;28.30;58.00
20498;DHT22;10407;53.238;10.448;2023-08-24T10:33:36;28.70;60.10
20498;DHT22;10407;53.238;10.448;2023-08-24T10:36:07;28.80;60.30
20498;DHT22;10407;53.238;10.448;2023-08-24T10:38:39;28.90;59.10
20498;DHT22;10407;53.238;10.448;2023-08-24T10:41:05;29.20;59.10
20498;DHT22;10407;53.238;10.448;2023-08-24T10:43:48;28.10;56.60
20498;DHT22;10407;53.238;10.448;2023-08-24T10:46:15;27.90;57.90
20498;DHT22;10407;53.238;10.448;2023-08-24T10:51:16;28.50;58.60
20498;DHT22;10407;53.238;10.448;2023-08-24T10:53:48;28.70;58.20
20498;DHT22;10407;53.238;10.448;2023-08-24T10:56:17;29.10;58.60
20498;DHT22;10407;53.238;10.448;2023-08-24T10:58:46;29.10;55.30
20498;DHT22;10407;53.238;10.448;2023-08-24T11:01:20;28.70;58.20
20498;DHT22;10407;53.238;10.448;2023-08-24T11:03:56;28.50;55.10
20498;DHT22;10407;53.238;10.448;2023-08-24T11:06:25;28.70;58.00
20498;DHT22;10407;53.238;10.448;2023-08-24T11:09:08;29.00;57.70
20498;DHT22;10407;53.238;10.448;2023-08-24T11:14:27;28.40;56.40
20498;DHT22;10407;53.238;10.448;2023-08-24T11:17:00;28.70;58.30
20498;DHT22;10407;53.238;10.448;2023-08-24T11:19:29;28.80;54.20
20498;DHT22;10407;53.238;10.448;2023-08-24T11:21:58;28.00;54.10
20498;DHT22;10407;53.238;10.448;2023-08-24T11:24:26;28.60;56.20
20498;DHT22;10407;53.238;10.448;2023-08-24T11:26:55;28.90;55.50
20498;DHT22;10407;53.238;10.448;2023-08-24T11:29:24;28.80;54.10
20498;DHT22;10407;53.238;10.448;2023-08-24T11:31:52;28.80;54.50
20498;DHT22;10407;53.238;10.448;2023-08-24T11:34:20;28.50;55.00
20498;DHT22;10407;53.238;10.448;2023-08-24T11:36:48;28.10;51.90
20498;DHT22;10407;53.238;10.448;2023-08-24T11:39:20;27.80;54.30
20498;DHT22;10407;53.238;10.448;2023-08-24T11:42:05;28.10;55.30
20498;DHT22;10407;53.238;10.448;2023-08-24T11:44:47;28.10;54.10
20498;DHT22;10407;53.238;10.448;2023-08-24T11:47:15;28.20;54.30
20498;DHT22;10407;53.238;10.448;2023-08-24T11:49:43;28.50;53.60
20498;DHT22;10407;53.238;10.448;2023-08-24T11:52:11;28.60;54.00
20498;DHT22;10407;53.238;10.448;2023-08-24T11:54:40;28.50;54.60
20498;DHT22;10407;53.238;10.448;2023-08-24T11:57:09;28.40;53.60
20498;DHT22;10407;53.238;10.448;2023-08-24T11:59:38;28.10;53.60
20498;DHT22;10407;53.238;10.448;2023-08-24T12:02:06;28.40;53.90
20498;DHT22;10407;53.238;10.448;2023-08-24T12:04:42;28.10;51.30
20498;DHT22;10407;53.238;10.448;2023-08-24T12:07:11;28.10;54.30
20498;DHT22;10407;53.238;10.448;2023-08-24T12:09:40;28.00;52.30
20498;DHT22;10407;53.238;10.448;2023-08-24T12:12:15;27.50;53.10
20498;DHT22;10407;53.238;10.448;2023-08-24T12:14:44;27.50;52.60
20498;DHT22;10407;53.238;10.448;2023-08-24T12:17:13;27.50;54.60
20498;DHT22;10407;53.238;10.448;2023-08-24T12:19:45;27.90;53.60
20498;DHT22;10407;53.238;10.448;2023-08-24T12:22:16;27.40;53.30
20498;DHT22;10407;53.238;10.448;2023-08-24T12:24:44;26.90;54.90
20498;DHT22;10407;53.238;10.448;2023-08-24T12:27:24;27.10;55.30
20498;DHT22;10407;53.238;10.448;2023-08-24T12:29:52;27.80;55.20
20498;DHT22;10407;53.238;10.448;2023-08-24T12:32:20;28.30;54.00
20498;DHT22;10407;53.238;10.448;2023-08-24T12:34:53;28.40;52.40
20498;DHT22;10407;53.238;10.448;2023-08-24T12:37:22;28.60;52.30
20498;DHT22;10407;53.238;10.448;2023-08-24T12:39:50;27.40;52.60
20498;DHT22;10407;53.238;10.448;2023-08-24T12:42:17;28.10;53.90
20498;DHT22;10407;53.238;10.448;2023-08-24T12:44:45;28.00;54.50
20498;DHT22;10407;53.238;10.448;2023-08-24T12:47:12;28.00;55.80
20498;DHT22;10407;53.238;10.448;2023-08-24T12:49:40;27.60;56.20
20498;DHT22;10407;53.238;10.448;2023-08-24T12:52:07;27.90;54.20
20498;DHT22;10407;53.238;10.448;2023-08-24T12:54:35;28.10;51.80
20498;DHT22;10407;53.238;10.448;2023-08-24T12:57:03;27.30;52.90
20498;DHT22;10407;53.238;10.448;2023-08-24T12:59:30;27.40;52.80
20498;DHT22;10407;53.238;10.448;2023-08-24T13:01:58;27.30;54.10
20498;DHT22;10407;53.238;10.448;2023-08-24T13:04:26;27.10;54.50
20498;DHT22;10407;53.238;10.448;2023-08-24T13:06:55;27.10;54.60
20498;DHT22;10407;53.238;10.448;2023-08-24T13:09:23;26.70;55.30
20498;DHT22;10407;53.238;10.448;2023-08-24T13:11:50;26.30;56.60
20498;DHT22;10407;53.238;10.448;2023-08-24T13:14:18;26.40;57.50
20498;DHT22;10407;53.238;10.448;2023-08-24T13:16:46;27.00;55.90
20498;DHT22;10407;53.238;10.448;2023-08-24T13:19:15;26.90;56.00
20498;DHT22;10407;53.238;10.448;2023-08-24T13:21:42;26.80;57.00
20498;DHT22;10407;53.238;10.448;2023-08-24T13:24:10;26.60;56.60
20498;DHT22;10407;53.238;10.448;2023-08-24T13:26:37;27.10;55.30
20498;DHT22;10407;53.238;10.448;2023-08-24T13:29:05;27.20;54.70
20498;DHT22;10407;53.238;10.448;2023-08-24T13:31:32;27.50;54.70
20498;DHT22;10407;53.238;10.448;2023-08-24T13:34:01;27.50;53.70
20498;DHT22;10407;53.238;10.448;2023-08-24T13:36:30;27.40;53.50
20498;DHT22;10407;53.238;10.448;2023-08-24T13:38:58;27.40;53.10
20498;DHT22;10407;53.238;10.448;2023-08-24T13:41:25;27.60;53.50
20498;DHT22;10407;53.238;10.448;2023-08-24T13:43:53;27.90;54.10
20498;DHT22;10407;53.238;10.448;2023-08-24T13:46:20;27.90;53.30
20498;DHT22;10407;53.238;10.448;2023-08-24T13:48:48;27.70;53.00
20498;DHT22;10407;53.238;10.448;2023-08-24T13:51:15;27.70;54.20
20498;DHT22;10407;53.238;10.448;2023-08-24T13:53:43;27.80;54.90
20498;DHT22;10407;53.238;10.448;2023-08-24T13:56:10;27.70;54.00
20498;DHT22;10407;53.238;10.448;2023-08-24T13:58:38;27.60;52.30
20498;DHT22;10407;53.238;10.448;2023-08-24T14:01:08;27.60;53.70
20498;DHT22;10407;53.238;10.448;2023-08-24T14:06:59;27.40;54.20
20498;DHT22;10407;53.238;10.448;2023-08-24T14:09:27;27.50;53.10
20498;DHT22;10407;53.238;10.448;2023-08-24T14:11:54;27.60;53.60
20498;DHT22;10407;53.238;10.448;2023-08-24T14:14:22;27.80;52.50
20498;DHT22;10407;53.238;10.448;2023-08-24T14:16:54;27.90;52.90
20498;DHT22;10407;53.238;10.448;2023-08-24T14:19:23;28.10;53.70
20498;DHT22;10407;53.238;10.448;2023-08-24T14:21:51;28.20;53.40
20498;DHT22;10407;53.238;10.448;2023-08-24T14:24:18;27.70;54.90
20498;DHT22;10407;53.238;10.448;2023-08-24T14:26:46;27.30;53.60
20498;DHT22;10407;53.238;10.448;2023-08-24T14:29:14;27.30;54.30
20498;DHT22;10407;53.238;10.448;2023-08-24T14:31:42;26.90;55.60
20498;DHT22;10407;53.238;10.448;2023-08-24T14:34:09;26.80;55.30
20498;DHT22;10407;53.238;10.448;2023-08-24T14:36:37;26.70;56.40
20498;DHT22;10407;53.238;10.448;2023-08-24T14:39:04;26.90;56.50
20498;DHT22;10407;53.238;10.448;2023-08-24T14:41:32;27.10;55.30
20498;DHT22;10407;53.238;10.448;2023-08-24T14:44:00;27.20;54.30
20498;DHT22;10407;53.238;10.448;2023-08-24T14:46:27;27.20;54.40
20498;DHT22;10407;53.238;10.448;2023-08-24T14:48:55;27.40;53.70
20498;DHT22;10407;53.238;10.448;2023-08-24T14:51:23;27.40;54.00
20498;DHT22;10407;53.238;10.448;2023-08-24T14:53:50;27.40;54.50
20498;DHT22;10407;53.238;10.448;2023-08-24T14:56:18;27.10;55.60
20498;DHT22;10407;53.238;10.448;2023-08-24T14:58:45;27.20;55.70
20498;DHT22;10407;53.238;10.448;2023-08-24T15:01:13;27.30;56.20
20498;DHT22;10407;53.238;10.448;2023-08-24T15:03:41;27.30;55.60
20498;DHT22;10407;53.238;10.448;2023-08-24T15:06:09;27.00;56.10
20498;DHT22;10407;53.238;10.448;2023-08-24T15:08:37;26.90;55.60
20498;DHT22;10407;53.238;10.448;2023-08-24T15:11:05;26.80;57.20
20498;DHT22;10407;53.238;10.448;2023-08-24T15:13:32;26.90;56.50
20498;DHT22;10407;53.238;10.448;2023-08-24T15:16:00;26.90;56.50
20498;DHT22;10407;53.238;10.448;2023-08-24T15:18:28;27.00;56.10
20498;DHT22;10407;53.238;10.448;2023-08-24T15:20:57;27.00;56.00
20498;DHT22;10407;53.238;10.448;2023-08-24T15:23:26;26.90;56.20
20498;DHT22;10407;53.238;10.448;2023-08-24T15:25:58;26.80;56.20
20498;DHT22;10407;53.238;10.448;2023-08-24T15:28:35;26.70;57.20
20498;DHT22;10407;53.238;10.448;2023-08-24T15:30:56;26.50;57.80
20498;DHT22;10407;53.238;10.448;2023-08-24T15:33:23;26.30;59.10
20498;DHT22;10407;53.238;10.448;2023-08-24T15:35:51;26.40;58.80
20498;DHT22;10407;53.238;10.448;2023-08-24T15:38:18;26.50;59.40
20498;DHT22;10407;53.238;10.448;2023-08-24T15:40:51;26.70;58.30
20498;DHT22;10407;53.238;10.448;2023-08-24T15:43:20;26.40;61.00
20498;DHT22;10407;53.238;10.448;2023-08-24T15:45:49;26.30;61.70